Pagrindinis puslapis
METAR-TAF:

METAR-TAF

Oro uostai :

Haugesiundas, Norvegija

platuma: 59-21N, ilguma: 005-13E, Aukštis: 2 m

Dabartinis oras

Ataskaita buvo paskelbta 30 minutes, ne 15:50 UTC
Vėjas 10 kt iš Vakarų/Šiaurės Vakarų
Temperatūra 4°C
Drėgmė 60%
Slėgis 999 hPa
Matomumas 10 km arba daugiau
Mažai debesys ne aukštis 2000 ft, aukštai iškilę kamuoliniai debesys.
Išsisklaidę debesys ne aukštis 4600 ft

METAR: ENHD 071550Z 30010KT 9999 FEW020TCU SCT046 04/M03 Q0999

Laikas: 17:20 (16:20 UTC)

Prognozė

Ataskaita buvo paskelbta 2 valandos ir 20 minutes, ne 14:00 UTC
Prognozė galioja nuo 07 metu 15 UTC su 07 metu 22 UTC
Vėjas 8 kt iš Vakarų
Matomumas 10 km arba daugiau
Mažai debesys ne aukštis 1500 ft, aukštai iškilę kamuoliniai debesys.
Su prošvaistėmis ne aukštis 3000 ft
lietus

TAF: ENHD 071400Z 0715/0722 26008KT 9999 -SHRA FEW015TCU BKN030

Orai ataskaitas ir orų prognozės (METAR, TAF).

turimą stotys yra geltonos ir raudonos taškus žemėlapyje.

Perkelti pele per norėdami pamatyti stoties vardą.

Tada spustelėkite, norėdami matyti oro stebėjimo ir prognozės.

Norėdami pakeisti žemėlapį: spustelėkite ant žalios mygtukų su juodo kryžiaus žemyn,; žalią mygtuką su brūkšneliu, jei norite nutolinti; arba žalių rodyklių gretimoms žemėlapius.


METAR-TAF: